Time;durP1;ratioP1;P1;durP2;ratioP2;P2;SDS_P1;SDS_P2;PMS_P1;PMS_P2;Temp;Humidity;BMP_temperature;BMP_pressure;BME280_temperature;BME280_humidity;BME280_pressure;Samples;Min_cycle;Max_cycle;Signal;HPM_P1;HPM_P2
2022/01/23 00:01:17;;;;;;;5.78;1.67;;;;;;;-148.16;100.00;58328.31;5072020;28;20052;-54
2022/01/23 00:04:03;;;;;;;4.75;1.70;;;;;;;-148.16;100.00;58328.31;5072053;28;20492;-52
2022/01/23 00:06:49;;;;;;;4.25;1.77;;;;;;;-148.16;100.00;58328.31;5072499;28;20044;-53
2022/01/23 00:09:37;;;;;;;4.75;1.88;;;;;;;-148.16;100.00;58328.31;5072273;28;20048;-54
2022/01/23 00:12:26;;;;;;;3.65;1.77;;;;;;;-148.16;100.00;58328.31;5076860;28;20472;-52
2022/01/23 00:18:15;;;;;;;6.20;1.88;;;;;;;-148.16;100.00;58328.31;5071629;28;20044;-52
2022/01/23 00:21:01;;;;;;;4.10;1.60;;;;;;;-148.16;100.00;58328.31;5071322;28;20040;-52
2022/01/23 00:32:41;;;;;;;4.78;1.90;;;;;;;-148.16;100.00;58328.31;5070599;28;20056;-54
2022/01/23 00:35:28;;;;;;;4.47;1.70;;;;;;;-148.16;100.00;58328.31;5071004;28;20045;-55
2022/01/23 00:38:16;;;;;;;4.35;1.85;;;;;;;-148.16;100.00;58328.31;5070764;28;20052;-52
2022/01/23 00:41:02;;;;;;;4.68;2.17;;;;;;;-148.16;100.00;58328.31;5070655;28;20057;-54
2022/01/23 00:43:49;;;;;;;4.38;2.20;;;;;;;-148.16;100.00;58328.31;5071603;28;20044;-50
2022/01/23 00:46:38;;;;;;;3.72;1.63;;;;;;;-148.16;100.00;58328.31;5071557;28;20045;-49
2022/01/23 00:49:25;;;;;;;5.65;2.08;;;;;;;-148.16;100.00;58328.31;5084239;28;20044;-50
2022/01/23 00:52:11;;;;;;;4.13;1.77;;;;;;;-148.16;100.00;58328.31;5070456;28;20049;-57
2022/01/23 00:54:57;;;;;;;4.15;1.80;;;;;;;-148.16;100.00;58328.31;5071521;28;20049;-53
2022/01/23 00:57:43;;;;;;;6.03;2.50;;;;;;;-148.16;100.00;58328.31;5070953;28;20049;-54
2022/01/23 01:00:30;;;;;;;8.02;2.60;;;;;;;-148.16;100.00;58328.31;5070153;28;20052;-54
2022/01/23 01:03:16;;;;;;;6.50;1.98;;;;;;;-148.16;100.00;58328.31;5071274;28;20499;-51
2022/01/23 01:06:02;;;;;;;4.22;2.00;;;;;;;-148.16;100.00;58328.31;5072396;28;20040;-52
2022/01/23 01:08:50;;;;;;;4.95;2.53;;;;;;;-148.16;100.00;58328.31;5071465;28;20040;-52
2022/01/23 01:11:56;;;;;;;4.45;2.00;;;;;;;-148.16;100.00;58328.31;5070989;28;20053;-52
2022/01/23 01:30:15;;;;;;;4.10;2.53;;;;;;;-148.16;100.00;58328.31;5056745;28;20412;-54
2022/01/23 01:36:07;;;;;;;4.25;1.80;;;;;;;-148.16;100.00;58328.31;5070341;28;20045;-53
2022/01/23 01:38:53;;;;;;;4.60;1.75;;;;;;;-148.16;100.00;58328.31;5070786;28;20404;-52
2022/01/23 01:41:42;;;;;;;3.08;1.45;;;;;;;-148.16;100.00;58328.31;5069806;28;20040;-53
2022/01/23 01:44:30;;;;;;;5.10;1.80;;;;;;;-148.16;100.00;58328.31;5075895;28;20044;-50
2022/01/23 01:47:50;;;;;;;8.00;2.70;;;;;;;-148.16;100.00;58328.31;5008711;28;20394;-54
2022/01/23 01:50:43;;;;;;;3.92;2.03;;;;;;;-148.16;100.00;58328.31;5009059;28;20049;-54
2022/01/23 01:53:29;;;;;;;3.25;2.10;;;;;;;-148.16;100.00;58328.31;4994661;28;20041;-54
2022/01/23 01:56:15;;;;;;;10.27;3.95;;;;;;;-148.16;100.00;58328.31;4994776;28;20513;-54
2022/01/23 02:08:54;;;;;;;9.23;4.32;;;;;;;-148.16;100.00;58328.31;4995819;28;20070;-52
2022/01/23 02:12:17;;;;;;;7.07;2.83;;;;;;;-148.16;100.00;58328.31;5012499;28;20054;-53
2022/01/23 02:55:16;;;;;;;7.65;3.22;;;;;;;-148.16;100.00;58328.31;5030883;28;20476;-53
2022/01/23 02:58:05;;;;;;;5.30;2.60;;;;;;;-148.16;100.00;58328.31;5086159;28;20499;-54
2022/01/23 03:01:09;;;;;;;5.90;3.10;;;;;;;-148.16;100.00;58328.31;5072472;28;20053;-54
2022/01/23 03:04:12;;;;;;;5.80;2.80;;;;;;;-148.16;100.00;58328.31;5072013;28;20048;-50
2022/01/23 03:10:18;;;;;;;7.55;2.92;;;;;;;-148.16;100.00;58328.31;5073090;28;20056;-54
2022/01/23 03:24:04;;;;;;;5.43;3.03;;;;;;;-148.16;100.00;58328.31;5071955;28;20056;-52
2022/01/23 03:26:10;;;;;;;6.05;3.45;;;;;;;-148.16;100.00;58328.31;5071293;28;20044;-53
2022/01/23 03:34:38;;;;;;;;;;;;;;;-148.16;100.00;58328.31;5071006;28;20041;-55
2022/01/23 03:37:23;;;;;;;6.20;3.70;;;;;;;-148.16;100.00;58328.31;5071442;28;19920;-52
2022/01/23 03:40:09;;;;;;;5.88;3.20;;;;;;;-148.16;100.00;58328.31;5072176;28;20048;-54
2022/01/23 03:43:07;;;;;;;5.65;2.80;;;;;;;-148.16;100.00;58328.31;5072906;28;20044;-54
2022/01/23 03:51:31;;;;;;;7.07;3.53;;;;;;;-148.16;100.00;58328.31;5085376;28;20052;-53
2022/01/23 03:54:17;;;;;;;8.40;3.85;;;;;;;-148.16;100.00;58328.31;5085580;28;20056;-53
2022/01/23 03:57:06;;;;;;;6.95;3.15;;;;;;;-148.16;100.00;58328.31;5071043;28;20040;-53
2022/01/23 03:59:53;;;;;;;8.95;3.20;;;;;;;-148.16;100.00;58328.31;5071900;28;20045;-54
2022/01/23 04:02:39;;;;;;;8.55;3.47;;;;;;;-148.16;100.00;58328.31;5071101;28;20408;-54
2022/01/23 04:05:25;;;;;;;6.43;3.45;;;;;;;-148.16;100.00;58328.31;5057123;28;20036;-51
2022/01/23 04:08:12;;;;;;;9.48;4.22;;;;;;;-148.16;100.00;58328.31;5071106;28;20037;-54
2022/01/23 04:10:58;;;;;;;7.80;4.00;;;;;;;-148.16;100.00;58328.31;5070859;28;20044;-54
2022/01/23 04:13:54;;;;;;;9.65;3.92;;;;;;;-148.16;100.00;58328.31;5085127;28;20048;-52
2022/01/23 04:32:09;;;;;;;8.10;3.50;;;;;;;-148.16;100.00;58328.31;5001038;28;20050;-51
2022/01/23 04:59:45;;;;;;;7.35;3.58;;;;;;;-148.16;100.00;58328.31;5084380;28;20041;-52
2022/01/23 05:05:27;;;;;;;6.88;3.55;;;;;;;-148.16;100.00;58328.31;5070664;28;20048;-50
2022/01/23 05:08:36;;;;;;;8.35;4.03;;;;;;;-148.16;100.00;58328.31;5070535;28;20048;-51
2022/01/23 05:11:49;;;;;;;7.32;3.50;;;;;;;-148.16;100.00;58328.31;5070323;28;20060;-54
2022/01/23 05:14:45;;;;;;;11.35;4.55;;;;;;;-148.16;100.00;58328.31;5070477;28;20040;-54
2022/01/23 05:17:31;;;;;;;9.90;3.92;;;;;;;-148.16;100.00;58328.31;5070794;28;20484;-54
2022/01/23 05:20:18;;;;;;;10.40;3.80;;;;;;;-148.16;100.00;58328.31;5076098;28;20049;-54
2022/01/23 05:23:07;;;;;;;7.90;3.60;;;;;;;-148.16;100.00;58328.31;5070003;28;20572;-51
2022/01/23 05:25:52;;;;;;;6.95;3.53;;;;;;;-148.16;100.00;58328.31;5069908;28;20485;-49
2022/01/23 05:28:38;;;;;;;6.80;3.35;;;;;;;-148.16;100.00;58328.31;5070908;28;20044;-54
2022/01/23 05:31:24;;;;;;;6.72;3.60;;;;;;;-148.16;100.00;58328.31;5070865;28;20048;-51
2022/01/23 05:34:10;;;;;;;6.82;3.65;;;;;;;-148.16;100.00;58328.31;5070698;28;20052;-53
2022/01/23 05:36:56;;;;;;;8.20;3.58;;;;;;;-148.16;100.00;58328.31;5069605;28;20515;-52
2022/01/23 05:39:42;;;;;;;9.13;3.67;;;;;;;-148.16;100.00;58328.31;5069863;28;20057;-54
2022/01/23 05:42:29;;;;;;;7.03;3.13;;;;;;;-148.16;100.00;58328.31;5076863;28;20044;-54
2022/01/23 05:45:15;;;;;;;9.02;3.50;;;;;;;-148.16;100.00;58328.31;5074390;28;20045;-53
2022/01/23 05:48:27;;;;;;;8.07;3.92;;;;;;;-148.16;100.00;58328.31;5068742;28;20048;-52
2022/01/23 05:51:31;;;;;;;11.85;4.90;;;;;;;-148.16;100.00;58328.31;5074576;28;20056;-52
2022/01/23 05:54:22;;;;;;;12.02;4.90;;;;;;;-148.16;100.00;58328.31;5074482;28;20048;-51
2022/01/23 05:57:33;;;;;;;8.23;3.75;;;;;;;-148.16;100.00;58328.31;5074179;28;20044;-53
2022/01/23 06:00:31;;;;;;;11.18;4.40;;;;;;;-148.16;100.00;58328.31;5073677;28;20052;-50
2022/01/23 06:03:22;;;;;;;7.85;4.45;;;;;;;-148.16;100.00;58328.31;5073563;28;20048;-50
2022/01/23 06:06:19;;;;;;;7.78;3.90;;;;;;;-148.16;100.00;58328.31;5072989;28;20044;-49
2022/01/23 06:09:06;;;;;;;7.43;3.53;;;;;;;-148.16;100.00;58328.31;5073550;28;20048;-52
2022/01/23 06:11:52;;;;;;;7.20;3.30;;;;;;;-148.16;100.00;58328.31;5073016;28;20053;-54
2022/01/23 06:14:38;;;;;;;12.00;3.53;;;;;;;-148.16;100.00;58328.31;5073217;28;20476;-53
2022/01/23 06:17:25;;;;;;;9.25;4.20;;;;;;;-148.16;100.00;58328.31;5072798;28;20407;-55
2022/01/23 06:20:43;;;;;;;8.50;3.60;;;;;;;-148.16;100.00;58328.31;5064834;28;20041;-52
2022/01/23 06:24:07;;;;;;;7.47;3.75;;;;;;;-148.16;100.00;58328.31;5027727;28;20048;-54
2022/01/23 06:27:16;;;;;;;5.60;2.95;;;;;;;-148.16;100.00;58328.31;5078481;28;20044;-54
2022/01/23 06:30:03;;;;;;;6.97;3.05;;;;;;;-148.16;100.00;58328.31;5073985;28;20056;-52
2022/01/23 06:32:48;;;;;;;6.22;3.38;;;;;;;-148.16;100.00;58328.31;5084307;28;20048;-49
2022/01/23 06:35:35;;;;;;;7.18;3.42;;;;;;;-148.16;100.00;58328.31;5093724;28;20498;-54
2022/01/23 06:38:21;;;;;;;10.43;3.50;;;;;;;-148.16;100.00;58328.31;5094448;28;20052;-51
2022/01/23 06:41:07;;;;;;;5.95;2.63;;;;;;;-148.16;100.00;58328.31;5084610;28;20423;-49
2022/01/23 06:44:15;;;;;;;7.13;2.90;;;;;;;-148.16;100.00;58328.31;5064421;28;20396;-52
2022/01/23 06:47:02;;;;;;;8.05;4.18;;;;;;;-148.16;100.00;58328.31;5078499;28;20056;-53
2022/01/23 06:49:48;;;;;;;7.05;3.67;;;;;;;-148.16;100.00;58328.31;5073676;28;20040;-49
2022/01/23 06:52:35;;;;;;;8.40;4.70;;;;;;;-148.16;100.00;58328.31;5072216;28;20045;-54
2022/01/23 06:55:21;;;;;;;8.07;3.33;;;;;;;-148.16;100.00;58328.31;5057119;28;20049;-53
2022/01/23 06:58:11;;;;;;;10.05;4.97;;;;;;;-148.16;100.00;58328.31;5083303;28;20044;-51
2022/01/23 07:00:57;;;;;;;7.95;3.28;;;;;;;-148.16;100.00;58328.31;5085698;28;20048;-53
2022/01/23 07:04:07;;;;;;;6.75;3.75;;;;;;;-148.16;100.00;58328.31;5058059;28;20381;-51
2022/01/23 07:07:15;;;;;;;8.32;3.85;;;;;;;-148.16;100.00;58328.31;5083776;28;20044;-51
2022/01/23 07:10:29;;;;;;;6.85;3.75;;;;;;;-148.16;100.00;58328.31;5068906;28;20048;-51
2022/01/23 07:17:09;;;;;;;9.45;4.07;;;;;;;-148.16;100.00;58328.31;5071563;28;20049;-54
2022/01/23 07:20:06;;;;;;;10.27;4.40;;;;;;;-148.16;100.00;58328.31;5052065;28;20048;-54
2022/01/23 07:22:56;;;;;;;5.65;3.42;;;;;;;-148.16;100.00;58328.31;5057182;28;20056;-52
2022/01/23 07:25:42;;;;;;;7.90;3.35;;;;;;;-148.16;100.00;58328.31;5065924;28;20053;-53
2022/01/23 07:28:37;;;;;;;6.97;3.65;;;;;;;-148.16;100.00;58328.31;5057686;28;20057;-42
2022/01/23 07:34:18;;;;;;;12.77;5.05;;;;;;;-148.16;100.00;58328.31;5077394;28;20040;-52
2022/01/23 07:37:04;;;;;;;6.85;4.05;;;;;;;-148.16;100.00;58328.31;5082353;28;20060;-50
2022/01/23 07:40:00;;;;;;;11.65;4.20;;;;;;;-148.16;100.00;58328.31;5077774;28;20044;-51
2022/01/23 07:42:55;;;;;;;7.85;4.28;;;;;;;-148.16;100.00;58328.31;5074911;28;20044;-52
2022/01/23 07:45:59;;;;;;;31.58;17.23;;;;;;;-148.16;100.00;58328.31;5079651;28;20051;-51
2022/01/23 07:49:04;;;;;;;17.83;8.85;;;;;;;-148.16;100.00;58328.31;5085622;28;20040;-51
2022/01/23 07:52:17;;;;;;;8.60;5.00;;;;;;;-148.16;100.00;58328.31;5074785;28;20044;-51
2022/01/23 07:55:42;;;;;;;10.10;4.70;;;;;;;-148.16;100.00;58328.31;5029682;28;20704;-51
2022/01/23 07:58:40;;;;;;;9.20;4.55;;;;;;;-148.16;100.00;58328.31;5030127;28;20424;-47
2022/01/23 08:01:36;;;;;;;11.35;5.03;;;;;;;-148.16;100.00;58328.31;5070316;28;20419;-50
2022/01/23 08:04:57;;;;;;;10.98;4.10;;;;;;;-148.16;100.00;58328.31;5076718;28;20349;-54
2022/01/23 08:07:43;;;;;;;9.93;4.53;;;;;;;-148.16;100.00;58328.31;5081050;28;20036;-48
2022/01/23 08:10:33;;;;;;;10.45;4.28;;;;;;;-148.16;100.00;58328.31;5071700;28;20690;-48
2022/01/23 08:13:20;;;;;;;9.02;4.50;;;;;;;-148.16;100.00;58328.31;5068613;28;20044;-49
2022/01/23 08:16:05;;;;;;;10.07;4.57;;;;;;;-148.16;100.00;58328.31;5075876;28;20494;-49
2022/01/23 08:18:51;;;;;;;7.85;3.78;;;;;;;-148.16;100.00;58328.31;5071913;28;20039;-49
2022/01/23 08:21:37;;;;;;;9.70;5.30;;;;;;;-148.16;100.00;58328.31;5069934;28;20045;-44
2022/01/23 08:24:23;;;;;;;9.25;4.07;;;;;;;-148.16;100.00;58328.31;5065987;28;20488;-49
2022/01/23 08:27:09;;;;;;;8.93;4.32;;;;;;;-148.16;100.00;58328.31;5066744;28;20048;-49
2022/01/23 08:29:55;;;;;;;12.30;4.97;;;;;;;-148.16;100.00;58328.31;5052776;28;20048;-54
2022/01/23 08:32:40;;;;;;;9.23;4.43;;;;;;;-148.16;100.00;58328.31;5061320;28;20041;-48
2022/01/23 08:35:28;;;;;;;9.68;4.43;;;;;;;-148.16;100.00;58328.31;5058451;28;20049;-53
2022/01/23 08:38:14;;;;;;;6.72;3.42;;;;;;;-148.16;100.00;58328.31;5050124;28;20048;-52
2022/01/23 08:43:57;;;;;;;7.88;4.32;;;;;;;-148.16;100.00;58328.31;5089172;28;20048;-49
2022/01/23 08:46:43;;;;;;;8.98;4.47;;;;;;;-148.16;100.00;58328.31;5078997;28;20040;-58
2022/01/23 08:49:29;;;;;;;8.70;4.35;;;;;;;-148.16;100.00;58328.31;5070922;28;20056;-49
2022/01/23 08:52:18;;;;;;;7.95;4.45;;;;;;;-148.16;100.00;58328.31;5071321;28;20053;-51
2022/01/23 08:55:05;;;;;;;11.15;4.75;;;;;;;-148.16;100.00;58328.31;5070105;28;20044;-51
2022/01/23 08:57:51;;;;;;;8.18;4.38;;;;;;;-148.16;100.00;58328.31;5071755;28;20044;-49
2022/01/23 09:00:36;;;;;;;10.65;4.90;;;;;;;-148.16;100.00;58328.31;5083486;28;20044;-51
2022/01/23 09:03:22;;;;;;;9.30;4.40;;;;;;;-148.16;100.00;58328.31;5060687;28;20049;-47
2022/01/23 09:08:21;;;;;;;11.20;4.90;;;;;;;0.40;85.62;100130.13;5068374;28;21151;-46
2022/01/23 09:11:13;;;;;;;9.38;4.60;;;;;;;0.08;83.48;100126.84;5067198;28;20495;-45
2022/01/23 09:14:10;;;;;;;12.80;6.03;;;;;;;-0.60;85.87;100120.13;5068047;28;20060;-45
2022/01/23 09:16:55;;;;;;;11.50;5.40;;;;;;;-0.66;87.28;100133.84;5068257;28;20055;-48
2022/01/23 09:19:45;;;;;;;11.23;4.63;;;;;;;-0.53;89.07;100138.13;5067041;28;20056;-47
2022/01/23 09:22:31;;;;;;;11.68;5.03;;;;;;;-0.29;86.95;100138.94;5068617;28;20060;-48
2022/01/23 09:25:20;;;;;;;11.27;5.22;;;;;;;-0.20;86.57;100140.66;5067155;28;20063;-46
2022/01/23 09:28:14;;;;;;;10.63;4.90;;;;;;;-0.48;87.96;100127.81;5058653;28;20043;-50
2022/01/23 09:31:01;;;;;;;11.45;5.22;;;;;;;-0.50;88.72;100142.41;5052400;28;20068;-47
2022/01/23 09:33:46;;;;;;;10.45;4.68;;;;;;;-0.30;93.37;100106.31;5050736;28;20105;-47
2022/01/23 09:36:32;;;;;;;9.93;4.07;;;;;;;0.03;88.01;100141.44;5051243;28;20056;-49
2022/01/23 09:39:20;;;;;;;7.13;4.00;;;;;;;0.30;86.16;100119.88;5055313;28;20051;-47
2022/01/23 09:42:12;;;;;;;10.35;4.85;;;;;;;0.44;85.12;100143.00;5047855;28;20064;-50
2022/01/23 09:45:00;;;;;;;8.30;4.32;;;;;;;0.45;85.01;100142.16;5046565;28;20044;-50
2022/01/23 09:47:47;;;;;;;8.93;4.57;;;;;;;0.45;83.65;100141.28;5058993;28;20056;-51
2022/01/23 09:50:33;;;;;;;10.40;5.03;;;;;;;-0.15;85.29;100130.34;5055106;28;20052;-49
2022/01/23 09:53:22;;;;;;;8.35;4.47;;;;;;;-0.21;83.52;100138.91;5050570;28;20515;-52
2022/01/23 09:56:09;;;;;;;7.75;4.35;;;;;;;-0.23;84.16;100152.69;5056851;28;20040;-46
2022/01/23 09:58:57;;;;;;;9.18;4.57;;;;;;;-0.14;83.68;100145.78;5063744;28;20052;-49
2022/01/23 10:01:53;;;;;;;7.85;4.20;;;;;;;-0.22;83.89;100152.69;5059081;28;20426;-54
2022/01/23 10:04:39;;;;;;;9.43;4.43;;;;;;;0.23;82.14;100146.53;5072441;28;20483;-49
2022/01/23 10:07:25;;;;;;;5.82;3.67;;;;;;;-0.03;81.06;100142.31;5064958;28;20068;-51
2022/01/23 10:10:18;;;;;;;8.95;4.53;;;;;;;0.09;81.23;100155.19;5071071;28;20055;-50
2022/01/23 10:13:04;;;;;;;8.68;4.95;;;;;;;0.13;80.49;100153.47;5065033;28;20562;-49
2022/01/23 10:15:50;;;;;;;11.15;5.07;;;;;;;-0.29;81.63;100151.81;5066798;28;20052;-46
2022/01/23 10:18:36;;;;;;;8.82;4.20;;;;;;;-0.41;83.29;100146.69;5060969;28;20056;-58
2022/01/23 10:21:24;;;;;;;9.75;4.82;;;;;;;-0.34;83.91;100150.13;5059790;28;20068;-48
2022/01/23 10:24:14;;;;;;;9.77;5.53;;;;;;;-0.23;83.47;100150.97;5049407;28;20137;-49
2022/01/23 10:27:01;;;;;;;8.32;4.68;;;;;;;-0.52;83.49;100141.53;5042267;28;20064;-47
2022/01/23 10:29:47;;;;;;;10.10;4.35;;;;;;;-0.39;82.94;100142.38;5052630;28;20048;-48
2022/01/23 10:32:33;;;;;;;8.32;4.22;;;;;;;-0.57;80.71;100123.53;5038583;28;20388;-48
2022/01/23 10:35:18;;;;;;;10.15;4.60;;;;;;;0.02;79.53;100135.44;5038000;28;20056;-48
2022/01/23 10:38:08;;;;;;;8.77;3.80;;;;;;;-0.30;78.91;100149.25;5045535;28;20056;-50
2022/01/23 10:41:06;;;;;;;7.63;3.67;;;;;;;0.03;78.72;100150.06;5038776;28;20049;-48
2022/01/23 10:50:08;;;;;;;5.15;3.25;;;;;;;0.26;77.13;100130.19;5040202;28;20298;-48
2022/01/23 10:52:59;;;;;;;8.90;3.67;;;;;;;0.46;76.98;100137.84;5040857;28;20054;-48
2022/01/23 10:55:47;;;;;;;7.93;3.53;;;;;;;0.76;80.12;100135.09;5037943;28;20048;-52
2022/01/23 10:58:33;;;;;;;7.70;4.20;;;;;;;0.45;81.62;100124.09;5040112;28;20064;-50
2022/01/23 11:01:18;;;;;;;7.63;4.22;;;;;;;0.77;81.34;100126.50;5036647;28;20064;-53
2022/01/23 11:04:11;;;;;;;6.72;3.40;;;;;;;0.68;79.55;100117.97;5041399;28;20108;-48
2022/01/23 11:07:03;;;;;;;8.32;3.58;;;;;;;0.97;79.40;100137.56;5033148;28;20056;-50
2022/01/23 11:09:59;;;;;;;6.65;3.65;;;;;;;0.83;79.42;100134.22;5044980;28;20503;-48
2022/01/23 11:18:48;;;;;;;11.48;3.72;;;;;;;1.50;80.94;100132.84;5033068;28;20413;-51
2022/01/23 11:21:35;;;;;;;8.32;4.00;;;;;;;0.95;80.38;100130.66;5033299;28;20052;-50
2022/01/23 11:24:22;;;;;;;8.52;4.05;;;;;;;0.91;82.93;100129.84;5032122;28;20056;-47
2022/01/23 11:27:08;;;;;;;9.40;4.22;;;;;;;2.30;88.85;100114.75;5051936;28;20052;-52
2022/01/23 11:30:08;;;;;;;5.82;3.47;;;;;;;1.33;82.40;100128.66;5032769;28;20065;-49
2022/01/23 11:32:56;;;;;;;5.57;3.20;;;;;;;0.73;85.05;100115.34;5033308;28;20056;-52
2022/01/23 11:35:43;;;;;;;8.30;4.20;;;;;;;0.76;84.43;100110.16;5037992;28;20053;-48
2022/01/23 18:15:47;;;;;;;14.30;6.50;;;;;;;0.77;100.00;100196.19;5109795;27;21196;-54
2022/01/23 18:18:33;;;;;;;13.05;6.90;;;;;;;0.49;100.00;100208.31;5109971;28;20055;-55
2022/01/23 18:21:19;;;;;;;12.80;5.93;;;;;;;-0.06;100.00;100210.19;5110158;28;20086;-55
2022/01/23 18:24:09;;;;;;;12.98;5.72;;;;;;;0.06;100.00;100222.22;5124211;28;20063;-52
2022/01/23 18:26:54;;;;;;;10.77;5.70;;;;;;;-0.18;100.00;100221.34;5130601;28;20066;-53
2022/01/23 18:29:41;;;;;;;10.45;5.80;;;;;;;-0.28;100.00;100225.66;5129006;28;20066;-54
2022/01/23 18:32:26;;;;;;;13.80;5.90;;;;;;;0.43;100.00;100231.56;5129974;28;20062;-54
2022/01/23 18:35:12;;;;;;;13.32;5.82;;;;;;;0.65;100.00;100233.19;5129994;28;20595;-54
2022/01/23 18:37:58;;;;;;;16.50;5.00;;;;;;;1.05;100.00;100226.97;5108674;28;20055;-53
2022/01/23 18:40:44;;;;;;;12.30;5.25;;;;;;;0.99;100.00;100227.88;5109430;28;20075;-53
2022/01/23 18:43:30;;;;;;;15.43;6.60;;;;;;;1.01;100.00;100228.75;5101921;28;20067;-52
2022/01/23 18:46:15;;;;;;;12.85;5.75;;;;;;;0.46;100.00;100234.13;5101363;28;20510;-53
2022/01/23 18:49:02;;;;;;;16.17;5.78;;;;;;;0.60;100.00;100233.22;5109226;28;20047;-49
2022/01/23 18:51:54;;;;;;;9.05;4.47;;;;;;;0.73;100.00;100234.03;5104474;28;20510;-53
2022/01/23 18:54:55;;;;;;;10.88;4.65;;;;;;;0.50;100.00;100222.09;5099943;28;20087;-50
2022/01/23 18:58:02;;;;;;;9.73;4.47;;;;;;;0.40;100.00;100225.53;5099766;28;20046;-49
2022/01/23 19:00:49;;;;;;;11.57;4.75;;;;;;;0.46;100.00;100228.09;5087156;28;20043;-50
2022/01/23 19:03:43;;;;;;;11.07;3.95;;;;;;;0.30;100.00;100225.59;5096241;28;20097;-53
2022/01/23 19:06:41;;;;;;;13.13;4.45;;;;;;;0.40;100.00;100246.19;5103224;28;20071;-52
2022/01/23 19:09:33;;;;;;;11.10;3.92;;;;;;;-0.13;97.63;100205.88;5093519;28;20052;-52
2022/01/23 19:12:38;;;;;;;12.77;5.28;;;;;;;0.03;98.67;100237.69;5093616;28;20087;-53
2022/01/23 19:15:27;;;;;;;8.55;3.83;;;;;;;-0.08;98.15;100244.56;5104115;28;20063;-52
2022/01/23 19:18:15;;;;;;;10.73;4.35;;;;;;;0.08;99.41;100228.19;5127938;28;20054;-50
2022/01/23 19:21:05;;;;;;;8.68;4.13;;;;;;;0.05;99.97;100237.69;5118170;28;20050;-51
2022/01/23 19:23:51;;;;;;;8.48;5.22;;;;;;;-0.02;98.92;100239.41;5087112;28;20502;-52
2022/01/23 19:26:37;;;;;;;12.88;4.82;;;;;;;-0.22;100.00;100250.56;5077698;28;20055;-50
2022/01/23 19:29:32;;;;;;;11.65;5.03;;;;;;;-0.01;99.62;100241.09;5087979;28;20070;-55
2022/01/23 19:32:18;;;;;;;10.27;4.40;;;;;;;0.08;98.45;100247.97;5082613;28;20048;-54
2022/01/23 19:35:05;;;;;;;9.88;4.88;;;;;;;-0.01;97.73;100262.59;5081686;28;20408;-54
2022/01/23 19:37:53;;;;;;;8.52;4.72;;;;;;;0.24;98.92;100272.00;5077085;28;20055;-56
2022/01/23 19:40:46;;;;;;;10.02;4.40;;;;;;;-0.09;96.13;100255.72;5090574;28;20056;-53
2022/01/23 19:43:47;;;;;;;9.48;4.47;;;;;;;0.03;99.99;100271.19;5075956;28;20067;-54
2022/01/23 19:46:45;;;;;;;8.85;4.45;;;;;;;-0.10;97.69;100270.34;5084151;28;20134;-53
2022/01/23 19:49:36;;;;;;;10.18;4.72;;;;;;;-0.18;96.80;100283.19;5075098;28;20064;-49
2022/01/23 19:52:22;;;;;;;11.43;4.32;;;;;;;-0.08;98.73;100283.22;5079117;28;20132;-48
2022/01/23 19:55:08;;;;;;;12.23;5.00;;;;;;;-0.07;100.00;100297.81;5073558;28;20099;-49
2022/01/23 19:57:55;;;;;;;10.32;5.28;;;;;;;-0.30;98.25;100302.09;5074474;28;20170;-56
2022/01/23 20:00:45;;;;;;;13.07;4.57;;;;;;;-0.10;100.00;100303.84;5073670;28;20051;-56
2022/01/23 20:03:32;;;;;;;8.15;4.35;;;;;;;-0.05;98.05;100301.25;5073568;28;20051;-54
2022/01/23 20:06:24;;;;;;;10.05;4.20;;;;;;;0.34;100.00;100289.16;5073715;28;20048;-55
2022/01/23 20:09:10;;;;;;;7.05;3.80;;;;;;;0.16;96.23;100290.06;5073551;28;20051;-54
2022/01/23 20:15:00;;;;;;;10.07;4.28;;;;;;;0.36;99.88;100287.44;5073264;28;20051;-51
2022/01/23 20:17:47;;;;;;;9.23;3.58;;;;;;;0.11;95.96;100297.78;5076791;28;20051;-50
2022/01/23 20:20:33;;;;;;;10.25;4.25;;;;;;;0.18;96.68;100285.75;5073134;28;20052;-49
2022/01/23 20:23:20;;;;;;;9.18;4.03;;;;;;;0.20;96.41;100289.19;5076164;28;20075;-54
2022/01/23 20:26:06;;;;;;;8.95;3.80;;;;;;;0.29;96.77;100288.34;5075520;28;20075;-52
2022/01/23 20:28:51;;;;;;;9.35;3.75;;;;;;;0.15;95.29;100288.34;5072221;28;20044;-55
2022/01/23 20:31:42;;;;;;;6.63;3.70;;;;;;;0.18;93.90;100283.16;5081670;28;20044;-54
2022/01/23 20:34:30;;;;;;;9.00;3.92;;;;;;;0.43;97.09;100292.59;5073409;28;20700;-57
2022/01/23 20:37:20;;;;;;;7.85;3.60;;;;;;;0.53;95.75;100299.44;5075082;28;20051;-53
2022/01/23 20:40:13;;;;;;;5.60;2.90;;;;;;;0.44;93.58;100300.31;5071607;28;20042;-52
2022/01/23 20:42:59;;;;;;;8.13;3.08;;;;;;;0.45;91.10;100301.19;5073052;28;20055;-53
2022/01/23 20:45:44;;;;;;;8.57;3.22;;;;;;;0.37;93.58;100293.47;5078440;28;20055;-55
2022/01/23 20:48:30;;;;;;;6.03;3.33;;;;;;;0.16;92.48;100272.03;5073325;28;20075;-51
2022/01/23 20:51:21;;;;;;;6.20;2.70;;;;;;;0.38;93.59;100296.91;5073247;28;20499;-56
2022/01/23 20:54:07;;;;;;;9.75;3.80;;;;;;;0.39;91.65;100290.88;5064433;28;20056;-50
2022/01/23 20:56:53;;;;;;;5.25;2.97;;;;;;;0.40;90.11;100285.72;5073792;28;20047;-52
2022/01/23 20:59:38;;;;;;;5.78;3.25;;;;;;;0.22;89.72;100286.63;5073111;28;20055;-53
2022/01/23 21:02:25;;;;;;;6.07;2.97;;;;;;;0.38;93.24;100284.03;5074061;28;20515;-52
2022/01/23 21:05:11;;;;;;;5.10;3.08;;;;;;;0.51;93.03;100283.09;5072854;28;20518;-54
2022/01/23 21:07:56;;;;;;;9.88;2.50;;;;;;;0.29;89.16;100290.03;5072875;28;20055;-52
2022/01/23 21:10:43;;;;;;;9.75;3.15;;;;;;;0.30;89.36;100281.44;5071740;28;20052;-54
2022/01/23 21:13:32;;;;;;;9.82;3.25;;;;;;;0.34;90.11;100285.75;5072850;28;20048;-55
2022/01/23 21:40:48;;;;;;;3.67;2.13;;;;;;;0.40;88.52;100314.09;5071814;28;20071;-56
2022/01/23 21:43:34;;;;;;;5.50;2.58;;;;;;;0.49;90.68;100321.81;5070594;28;20048;-52
2022/01/23 21:46:20;;;;;;;4.60;2.22;;;;;;;0.17;87.12;100308.94;5072207;28;20071;-54
2022/01/23 21:49:07;;;;;;;9.18;3.00;;;;;;;0.34;90.29;100314.94;5076997;28;20047;-54
2022/01/23 21:51:53;;;;;;;9.32;3.03;;;;;;;0.29;89.00;100321.84;5072059;28;20047;-52
2022/01/23 21:54:38;;;;;;;5.82;2.72;;;;;;;0.30;91.25;100317.53;5071840;28;20067;-49
2022/01/23 21:57:24;;;;;;;4.85;2.53;;;;;;;0.19;89.62;100296.94;5072021;28;20403;-54
2022/01/23 22:00:10;;;;;;;8.70;2.78;;;;;;;0.31;88.23;100309.78;5076135;28;20047;-53
2022/01/23 22:02:58;;;;;;;6.15;2.70;;;;;;;0.29;87.81;100308.97;5072317;28;20059;-34
2022/01/23 22:05:43;;;;;;;6.43;2.58;;;;;;;1.20;100.00;100312.09;5070747;28;20051;-52
2022/01/23 22:08:29;;;;;;;7.07;2.78;;;;;;;1.40;96.07;100307.69;5071697;28;20059;-48
2022/01/23 22:11:22;;;;;;;4.57;2.55;;;;;;;1.24;97.52;100325.84;5088814;28;20047;-49
2022/01/23 22:17:12;;;;;;;10.05;2.65;;;;;;;1.29;100.00;100331.84;5083046;28;20043;-53
2022/01/23 22:19:58;;;;;;;4.72;2.50;;;;;;;1.32;100.00;100326.66;5080366;28;20047;-53
2022/01/23 22:23:08;;;;;;;8.18;2.75;;;;;;;0.98;94.65;100317.34;5087560;28;20051;-54
2022/01/23 22:28:54;;;;;;;6.53;3.15;;;;;;;1.16;94.42;100327.63;5090558;28;20059;-49
2022/01/23 22:31:41;;;;;;;7.18;2.92;;;;;;;0.91;93.61;100341.50;5083760;28;20047;-50
2022/01/23 22:34:27;;;;;;;8.43;3.28;;;;;;;1.17;93.84;100331.91;5077475;28;20052;-53
2022/01/23 22:37:16;;;;;;;6.53;2.50;;;;;;;1.34;93.10;100332.69;5094455;28;20039;-52
2022/01/23 22:40:03;;;;;;;6.13;2.40;;;;;;;1.32;90.67;100339.56;5089229;28;20088;-54
2022/01/23 22:42:49;;;;;;;6.85;3.08;;;;;;;1.28;93.50;100339.59;5086211;28;20518;-50
2022/01/23 22:45:58;;;;;;;8.43;2.80;;;;;;;1.29;90.78;100341.34;5085507;28;20078;-52
2022/01/23 22:48:39;;;;;;;8.05;2.85;;;;;;;1.20;90.01;100340.50;5086118;28;20427;-50
2022/01/23 22:51:27;;;;;;;8.30;3.17;;;;;;;1.06;92.24;100343.13;5088929;28;20055;-53
2022/01/23 22:54:14;;;;;;;6.30;2.60;;;;;;;0.84;87.67;100335.50;5088711;28;20051;-56
2022/01/23 22:57:00;;;;;;;5.95;2.85;;;;;;;0.92;90.18;100334.59;5085413;28;20043;-54
2022/01/23 22:59:45;;;;;;;5.32;2.30;;;;;;;0.76;89.99;100342.38;5095041;28;20051;-53
2022/01/23 23:02:31;;;;;;;6.82;2.55;;;;;;;0.77;88.75;100343.25;5094100;28;20066;-51
2022/01/23 23:05:17;;;;;;;8.20;2.85;;;;;;;0.52;88.43;100345.88;5095525;28;20051;-53